Terminal Aerodrome Forecast
Issued by NWS Twin Cities, MN

Home | Current Version | Previous Version | Graphics & Text | Print | Product List | Glossary On
Versions: 1 2 3 4 5 6 7 8 9 10 11 12 13 14 15 16 17 18 19 20 21 22 23 24 25
062
FTUS43 KMPX 191732
TAFMSP
TAF
KMSP 191732Z 1918/2024 30013G20KT P6SM VCSH BKN050
     FM192100 30012G20KT P6SM SCT050 BKN090
     FM200200 29007KT P6SM FEW120
     FM200600 27005KT P6SM VCSH SCT050 BKN090
     FM201200 30008KT P6SM FEW050=

USA.gov is the U.S. government's official web portal to all federal, state and local government web resources and services.